A- A+ FrançaisEnglishEspañol中国

Services sur Internet Soldes sur Internet Des idées de cadeaux Météo Météo aéro

La météo à : Autours de vous Tarbes-Lourdes-PyrénéesMontpellier-Frejorgues Brest-Guipavas Bordeaux-Yvrac

manche à air

La météo aéronautique pour les pilotes, la préparation du vol avec les METAR (METeorological Aerodrome Report, message d'observation des conditions météorologiques pour l'aviation) et Les TAF (Terminal Aerodrome Forecast : message de prévision à court terme des conditions météorologiques pour l'aviation). Et les autres ressources comme les VAC (Visual Approch Chart) et les NOTAM (Notice To Airman) pour préprer les vols.

Aéroport Waddington (Royaume-Uni) / OACI EGXW/ IATA WTN

L'altitude de l'aéroport Waddington est de 70 m = 230 ft. Il est situé à proximité de Waddington (Royaume-Uni). La météo générale à 5 jours est disponible pour Boothby Graffoe situé à 4.9 km.

METAR de l'aéroport Waddington - EGXW

EGXW 110750Z 21011KT CAVOK 04/02 Q1003 NOSIG RMK BLU BLU

Décodage du METAR de l'aéroport Waddington (GB)

METAR émis par EGXW le mercredi 11 décembre 2019 à 07:50 heure TU, il y a 9 minutes.

La visibilité est de supérieure à 10 km = supérieure à 6.2 sm.

La température est de 4°C = 39 °F et le point rosée est de 2°C = 36 °F . Ce qui correspond à 87% d'humidité relative.

Le QNH est de 1003 hPa = 29.62 inHg

Vent de 11 kt = 20 km/h, orienté à 210°.

Pas de nuages.

Aucun changement significatif dans les deux heures à venir remarques BLU BLU

TAF de l'aéroport Waddington - EGXW

EGXW 110737Z 1109/1203 22012KT 9999 FEW030

EGXW 110737Z 1109/1203 22012KT 9999 quelques nuages à 030

Aéroport à proximité de Waddington

Météo générale à 5 jours à Boothby Graffoe (4.9 km)Aéroport Cranwell (15 km)Aéroport Scampton (16 km)Aéroport Wickenby (20 km)Aéroport Barkston Heath (23 km)Aéroport Conningsby (25 km)Aéroport Sturgate (26 km)

Vue aérienne de l'aéroport Waddington

NOTAM de l'aéroport Waddington

Les NOTAM sont fournis sans aucune garantie de leur actualité. Le pilote est le seul responsable de la vérification de sa validité avant de l'utiliser opérationnellement pour préparer un vol ou l'utiliser lors de sa navigation.

Pas de NOTAM

Sources des données